Time;durP1;ratioP1;P1;durP2;ratioP2;P2;SDS_P1;SDS_P2;PMS_P1;PMS_P2;Temp;Humidity;BMP_temperature;BMP_pressure;BME280_temperature;BME280_humidity;BME280_pressure;Samples;Min_cycle;Max_cycle;Signal;HPM_P1;HPM_P2
2022/07/02 00:01:26;;;;;;;9.13;8.02;;;19.80;99.90;;;;;;5269068;28;20016;-73
2022/07/02 00:04:03;;;;;;;10.18;8.00;;;19.90;99.90;;;;;;5269029;28;20050;-77
2022/07/02 00:06:37;;;;;;;10.75;8.43;;;19.90;99.90;;;;;;5268947;28;20024;-81
2022/07/02 00:09:08;;;;;;;10.18;7.97;;;19.90;99.90;;;;;;5269028;28;20081;-81
2022/07/02 00:11:41;;;;;;;10.80;8.32;;;19.90;99.90;;;;;;5269069;28;20371;-74
2022/07/02 00:14:14;;;;;;;16.00;9.63;;;20.00;99.90;;;;;;5268873;28;20024;-80
2022/07/02 00:16:48;;;;;;;23.30;12.48;;;19.90;99.90;;;;;;5269036;28;20380;-74
2022/07/02 00:19:19;;;;;;;32.20;12.90;;;19.80;99.90;;;;;;5268878;28;20032;-73
2022/07/02 00:21:51;;;;;;;29.13;14.60;;;19.80;99.90;;;;;;5270315;28;20020;-73
2022/07/02 00:24:22;;;;;;;24.90;14.15;;;19.70;99.90;;;;;;5273139;28;20016;-76
2022/07/02 00:26:57;;;;;;;29.35;14.88;;;19.70;99.90;;;;;;5273031;28;20039;-76
2022/07/02 00:29:28;;;;;;;27.17;15.98;;;19.80;99.90;;;;;;5273039;28;20344;-81
2022/07/02 00:31:59;;;;;;;24.90;14.55;;;19.80;99.90;;;;;;5273226;28;20039;-81
2022/07/02 00:34:32;;;;;;;36.45;15.35;;;19.80;99.90;;;;;;5254897;28;20059;-80
2022/07/02 00:37:03;;;;;;;31.55;15.32;;;19.70;99.90;;;;;;5254839;28;20024;-80
2022/07/02 00:39:35;;;;;;;38.13;14.88;;;19.60;99.90;;;;;;5254770;28;20048;-73
2022/07/02 00:42:08;;;;;;;26.77;14.80;;;19.70;99.90;;;;;;5273029;28;20407;-72
2022/07/02 00:44:40;;;;;;;22.38;14.07;;;19.60;99.90;;;;;;5254417;28;20104;-73
2022/07/02 00:47:12;;;;;;;26.98;14.63;;;19.50;99.90;;;;;;5272736;28;20040;-73
2022/07/02 00:49:43;;;;;;;28.10;13.65;;;19.50;99.90;;;;;;5272857;28;20032;-73
2022/07/02 00:52:14;;;;;;;31.80;12.50;;;19.40;99.90;;;;;;5272653;28;20463;-80
2022/07/02 00:54:45;;;;;;;28.90;12.85;;;19.10;99.90;;;;;;5272543;28;20107;-81
2022/07/02 00:57:16;;;;;;;17.75;12.07;;;19.40;99.90;;;;;;5272719;28;20471;-73
2022/07/02 00:59:47;;;;;;;17.40;11.68;;;19.40;99.90;;;;;;5272641;28;20110;-73
2022/07/02 01:02:22;;;;;;;23.35;12.15;;;19.40;99.90;;;;;;5272506;28;20420;-81
2022/07/02 01:04:55;;;;;;;38.58;12.18;;;19.20;99.90;;;;;;5272327;28;20459;-73
2022/07/02 01:07:27;;;;;;;22.38;12.98;;;19.10;99.90;;;;;;5254058;28;20079;-73
2022/07/02 01:10:19;;;;;;;20.38;12.98;;;19.10;99.90;;;;;;5272367;28;20037;-73
2022/07/02 01:12:50;;;;;;;19.98;13.13;;;19.20;99.90;;;;;;5272461;28;20463;-82
2022/07/02 01:15:21;;;;;;;21.25;12.52;;;19.20;99.90;;;;;;5271692;28;20052;-78
2022/07/02 01:17:52;;;;;;;20.38;13.63;;;19.20;99.90;;;;;;5272249;28;20122;-73
2022/07/02 01:20:23;;;;;;;17.70;11.73;;;19.10;99.90;;;;;;5272208;28;20051;-73
2022/07/02 01:22:54;;;;;;;23.88;12.98;;;19.10;99.90;;;;;;5272127;28;20513;-75
2022/07/02 01:25:25;;;;;;;33.28;13.90;;;19.10;99.90;;;;;;5272070;28;20032;-73
2022/07/02 01:27:55;;;;;;;21.35;14.02;;;19.00;99.90;;;;;;5272057;28;20455;-73
2022/07/02 01:30:27;;;;;;;23.45;14.73;;;19.00;99.90;;;;;;5272025;28;20055;-73
2022/07/02 01:32:58;;;;;;;20.23;12.95;;;18.90;99.90;;;;;;5271229;28;20111;-73
2022/07/02 01:35:29;;;;;;;21.77;12.88;;;19.00;99.90;;;;;;5271601;28;20430;-81
2022/07/02 01:37:59;;;;;;;23.88;13.38;;;19.00;99.90;;;;;;5271880;28;20064;-80
2022/07/02 01:40:31;;;;;;;22.55;13.95;;;19.00;99.90;;;;;;5253636;28;20023;-76
2022/07/02 01:43:02;;;;;;;22.98;14.00;;;19.00;99.90;;;;;;5253710;28;20020;-81
2022/07/02 01:45:33;;;;;;;22.58;14.13;;;19.10;99.90;;;;;;5271424;28;20032;-81
2022/07/02 01:48:04;;;;;;;26.55;14.60;;;19.10;99.90;;;;;;5271533;28;20027;-81
2022/07/02 01:50:36;;;;;;;20.10;14.40;;;19.10;99.90;;;;;;5271738;28;20020;-75
2022/07/02 01:53:07;;;;;;;19.05;13.70;;;19.00;99.90;;;;;;5271505;28;20028;-82
2022/07/02 01:55:37;;;;;;;17.73;13.50;;;19.10;99.90;;;;;;5271569;28;20093;-80
2022/07/02 01:58:08;;;;;;;18.08;13.35;;;19.10;99.90;;;;;;5271345;28;20545;-72
2022/07/02 02:00:39;;;;;;;21.10;13.13;;;19.00;99.90;;;;;;5271309;28;20028;-73
2022/07/02 02:03:10;;;;;;;17.17;13.45;;;19.10;99.90;;;;;;5253049;28;20111;-82
2022/07/02 02:05:41;;;;;;;16.98;13.00;;;19.00;99.90;;;;;;5271283;28;20056;-73
2022/07/02 02:08:12;;;;;;;22.77;14.73;;;19.10;99.90;;;;;;5253181;28;20039;-73
2022/07/02 02:10:42;;;;;;;27.40;13.82;;;19.00;99.90;;;;;;5271392;28;20020;-73
2022/07/02 02:13:13;;;;;;;18.23;13.88;;;19.00;99.90;;;;;;5271205;28;20063;-82
2022/07/02 02:15:44;;;;;;;20.58;14.02;;;19.00;99.90;;;;;;5270759;28;20056;-74
2022/07/02 02:18:15;;;;;;;15.60;12.68;;;18.90;99.90;;;;;;5271028;28;20013;-81
2022/07/02 02:20:46;;;;;;;18.35;13.07;;;18.90;99.90;;;;;;5271093;28;20027;-82
2022/07/02 02:23:17;;;;;;;18.92;12.90;;;18.90;99.90;;;;;;5252670;28;20020;-73
2022/07/02 02:25:47;;;;;;;15.75;13.02;;;18.90;99.90;;;;;;5270536;28;20131;-75
2022/07/02 02:28:18;;;;;;;16.02;12.30;;;18.80;99.90;;;;;;5270579;27;20059;-73
2022/07/02 02:30:49;;;;;;;15.98;12.70;;;18.80;99.90;;;;;;5252576;28;20469;-73
2022/07/02 02:33:20;;;;;;;19.08;12.18;;;18.80;99.90;;;;;;5270724;28;20031;-73
2022/07/02 02:35:51;;;;;;;17.63;12.02;;;18.80;99.90;;;;;;5270696;28;20524;-82
2022/07/02 02:38:22;;;;;;;16.52;13.15;;;18.80;99.90;;;;;;5270426;28;20024;-78
2022/07/02 02:40:53;;;;;;;16.67;11.55;;;18.70;99.90;;;;;;5252417;28;20028;-80
2022/07/02 02:43:23;;;;;;;13.32;11.18;;;18.60;99.90;;;;;;5270684;28;20016;-72
2022/07/02 02:48:36;;;;;;;13.85;11.38;;;18.50;99.90;;;;;;4806853;23;20136;-82
2022/07/02 02:51:08;;;;;;;20.38;12.20;;;18.50;99.90;;;;;;5190439;28;20511;-81
2022/07/02 02:53:42;;;;;;;15.65;11.57;;;18.10;99.90;;;;;;5208090;28;20025;-73
2022/07/02 02:56:13;;;;;;;14.35;10.65;;;18.40;99.90;;;;;;5208150;28;20167;-81
2022/07/02 02:58:43;;;;;;;14.25;11.95;;;18.30;99.90;;;;;;5207998;28;20097;-74
2022/07/02 03:01:14;;;;;;;17.20;11.73;;;18.20;99.90;;;;;;5207943;28;20033;-73
2022/07/02 03:03:45;;;;;;;16.05;11.55;;;18.10;99.90;;;;;;5190160;28;20441;-73
2022/07/02 03:06:16;;;;;;;13.77;10.43;;;18.20;99.90;;;;;;5207849;28;20112;-74
2022/07/02 03:08:47;;;;;;;12.82;11.32;;;18.40;99.90;;;;;;5207632;28;20101;-81
2022/07/02 03:11:17;;;;;;;13.02;11.57;;;18.20;99.90;;;;;;5207728;28;20064;-73
2022/07/02 03:13:48;;;;;;;18.65;11.95;;;18.20;99.90;;;;;;5207846;28;20029;-73
2022/07/02 03:16:19;;;;;;;16.60;12.05;;;18.20;99.90;;;;;;5207349;28;20147;-74
2022/07/02 03:18:50;;;;;;;12.40;10.57;;;18.20;99.90;;;;;;5207471;28;20427;-73
2022/07/02 03:21:21;;;;;;;14.20;10.45;;;18.40;99.90;;;;;;5207601;28;20428;-79
2022/07/02 03:23:52;;;;;;;12.48;9.98;;;18.60;99.90;;;;;;5207552;28;20028;-82
2022/07/02 03:26:23;;;;;;;14.32;10.80;;;18.60;99.90;;;;;;5207224;28;20048;-73
2022/07/02 03:28:53;;;;;;;12.07;10.45;;;18.70;99.90;;;;;;5205931;28;20034;-78
2022/07/02 03:31:24;;;;;;;12.02;10.68;;;18.80;99.90;;;;;;5207331;28;20025;-75
2022/07/02 03:33:55;;;;;;;14.82;10.48;;;18.80;99.90;;;;;;5207347;28;20094;-81
2022/07/02 03:36:26;;;;;;;11.55;10.35;;;18.80;99.90;;;;;;5207149;28;20465;-82
2022/07/02 03:38:57;;;;;;;14.57;10.23;;;19.00;99.90;;;;;;5207385;28;20033;-82
2022/07/02 03:41:28;;;;;;;16.58;10.55;;;18.90;99.90;;;;;;5207201;28;20058;-74
2022/07/02 03:43:59;;;;;;;14.48;10.77;;;19.00;99.90;;;;;;5207193;28;20032;-83
2022/07/02 03:46:30;;;;;;;12.35;11.10;;;19.00;99.90;;;;;;5207015;28;20077;-73
2022/07/02 03:49:00;;;;;;;16.83;11.23;;;19.10;99.90;;;;;;5206681;28;20053;-73
2022/07/02 03:51:31;;;;;;;24.63;12.25;;;19.20;99.90;;;;;;5205751;28;20033;-73
2022/07/02 03:54:02;;;;;;;14.98;11.13;;;19.30;99.90;;;;;;5207081;28;20079;-82
2022/07/02 03:56:33;;;;;;;14.32;11.15;;;19.40;99.90;;;;;;5206710;28;20172;-82
2022/07/02 03:59:04;;;;;;;14.45;10.80;;;19.60;99.90;;;;;;5189152;28;20108;-74
2022/07/02 04:01:35;;;;;;;11.82;10.45;;;19.60;99.90;;;;;;5207033;28;20349;-82
2022/07/02 04:04:06;;;;;;;11.85;9.70;;;19.70;99.90;;;;;;5206943;28;20115;-73
2022/07/02 04:06:37;;;;;;;14.80;10.93;;;19.90;99.90;;;;;;5206791;28;20041;-76
2022/07/02 04:09:08;;;;;;;11.98;10.65;;;20.00;99.90;;;;;;5206751;28;20026;-79
2022/07/02 04:11:39;;;;;;;12.77;10.10;;;20.10;99.90;;;;;;5206769;28;20049;-73
2022/07/02 04:14:09;;;;;;;13.63;9.27;;;20.00;99.90;;;;;;5206588;28;20083;-74
2022/07/02 04:16:40;;;;;;;13.93;9.88;;;20.30;99.90;;;;;;5206453;28;20511;-79
2022/07/02 04:19:12;;;;;;;14.05;10.20;;;20.50;99.90;;;;;;5205322;28;20045;-73
2022/07/02 04:21:43;;;;;;;11.70;9.50;;;20.60;99.90;;;;;;5206626;28;20477;-73
2022/07/02 04:24:14;;;;;;;13.77;9.57;;;20.70;99.90;;;;;;5206847;28;20465;-82
2022/07/02 04:26:45;;;;;;;13.88;10.48;;;20.80;99.90;;;;;;5206502;28;20416;-74
2022/07/02 04:29:16;;;;;;;10.90;9.88;;;21.20;99.90;;;;;;5206622;28;20373;-76
2022/07/02 04:31:47;;;;;;;10.00;9.00;;;21.40;99.90;;;;;;5206681;28;20025;-75
2022/07/02 04:34:18;;;;;;;11.40;10.27;;;21.60;99.90;;;;;;5206668;28;20033;-83
2022/07/02 04:36:48;;;;;;;11.77;10.57;;;21.90;99.90;;;;;;5206559;28;20038;-73
2022/07/02 04:39:19;;;;;;;13.93;10.60;;;22.00;99.90;;;;;;5206535;28;20053;-74
2022/07/02 04:41:50;;;;;;;14.88;11.25;;;22.20;99.90;;;;;;5206573;28;20076;-75
2022/07/02 04:44:21;;;;;;;11.98;10.80;;;22.70;99.90;;;;;;5206532;28;20025;-78
2022/07/02 04:46:53;;;;;;;13.32;10.50;;;22.50;99.90;;;;;;5206209;28;20049;-78
2022/07/02 04:49:24;;;;;;;13.05;11.35;;;22.60;99.90;;;;;;5206424;28;20058;-82
2022/07/02 04:51:55;;;;;;;13.32;11.00;;;22.60;99.90;;;;;;5206589;28;20489;-82
2022/07/02 04:54:26;;;;;;;13.48;10.60;;;22.70;99.90;;;;;;5206387;28;20433;-82
2022/07/02 04:56:58;;;;;;;14.88;11.18;;;22.70;99.90;;;;;;5206509;28;20117;-82
2022/07/02 04:59:28;;;;;;;13.77;11.55;;;22.60;99.90;;;;;;5206336;28;20123;-83
2022/07/02 05:01:59;;;;;;;14.20;11.10;;;22.70;99.90;;;;;;5206361;28;20041;-77
2022/07/02 05:04:30;;;;;;;17.33;12.02;;;22.80;99.90;;;;;;5206230;28;20476;-74
2022/07/02 05:07:01;;;;;;;13.90;11.07;;;23.10;99.90;;;;;;5206325;28;20120;-81
2022/07/02 05:09:32;;;;;;;13.02;11.15;;;23.40;99.90;;;;;;5208273;28;20018;-74
2022/07/02 05:12:03;;;;;;;13.80;11.05;;;23.50;99.90;;;;;;5210051;28;20030;-83
2022/07/02 05:14:35;;;;;;;11.88;10.30;;;23.60;99.90;;;;;;5210058;28;20483;-84
2022/07/02 05:17:06;;;;;;;13.80;9.15;;;23.80;99.90;;;;;;5209981;28;20033;-82
2022/07/02 05:19:37;;;;;;;9.50;7.95;;;23.70;99.90;;;;;;5209940;28;20037;-82
2022/07/02 05:22:08;;;;;;;8.52;7.60;;;23.90;99.90;;;;;;5209873;28;20346;-82
2022/07/02 05:24:38;;;;;;;9.07;7.35;;;23.80;99.90;;;;;;5209817;28;20358;-73
2022/07/02 05:27:09;;;;;;;7.40;6.57;;;24.10;99.90;;;;;;5209694;28;20063;-73
2022/07/02 05:29:40;;;;;;;7.40;6.65;;;24.20;99.90;;;;;;5209679;28;20022;-83
2022/07/02 05:32:11;;;;;;;8.85;6.53;;;24.00;99.90;;;;;;5209803;28;20030;-82
2022/07/02 05:34:42;;;;;;;7.53;6.63;;;23.90;99.90;;;;;;5209614;28;20186;-73
2022/07/02 05:37:13;;;;;;;7.70;6.28;;;24.30;99.90;;;;;;5209605;28;20103;-81
2022/07/02 05:39:43;;;;;;;7.63;6.30;;;24.60;99.90;;;;;;5209506;28;20030;-73
2022/07/02 05:42:14;;;;;;;7.95;6.38;;;24.10;99.90;;;;;;5209540;28;20124;-74
2022/07/02 05:44:45;;;;;;;8.52;6.13;;;23.90;99.90;;;;;;5209480;28;20053;-74
2022/07/02 05:47:16;;;;;;;6.97;6.18;;;23.90;99.90;;;;;;5209192;28;20033;-83
2022/07/02 05:49:47;;;;;;;10.32;6.43;;;23.70;99.90;;;;;;5201336;28;20477;-78
2022/07/02 05:52:18;;;;;;;9.50;6.30;;;23.70;99.90;;;;;;5206289;28;20060;-73
2022/07/02 05:54:49;;;;;;;12.43;6.40;;;24.10;99.90;;;;;;5209426;28;20018;-74
2022/07/02 05:57:20;;;;;;;11.10;5.55;;;24.70;99.90;;;;;;5209135;28;20029;-84
2022/07/02 05:59:50;;;;;;;6.07;5.13;;;25.00;99.90;;;;;;5209133;28;20056;-74
2022/07/02 06:02:21;;;;;;;6.53;5.60;;;25.20;99.90;;;;;;5209225;28;20489;-74
2022/07/02 06:04:52;;;;;;;7.72;5.40;;;24.70;99.90;;;;;;5209081;28;20033;-82
2022/07/02 06:07:42;;;;;;;6.10;5.50;;;24.50;99.90;;;;;;5208817;28;20029;-78
2022/07/02 06:10:18;;;;;;;8.57;5.15;;;24.40;99.90;;;;;;5209032;28;20036;-74
2022/07/02 06:12:51;;;;;;;8.18;5.25;;;24.90;99.90;;;;;;5209014;28;20475;-74
2022/07/02 06:15:22;;;;;;;8.77;5.70;;;24.50;99.90;;;;;;5209051;28;20049;-75
2022/07/02 06:17:53;;;;;;;7.65;5.30;;;24.40;99.90;;;;;;5208613;28;20067;-82
2022/07/02 06:20:23;;;;;;;9.07;5.80;;;24.80;99.90;;;;;;5208611;28;20116;-75
2022/07/02 06:22:55;;;;;;;9.07;5.30;;;24.90;99.90;;;;;;5208870;28;20030;-74
2022/07/02 06:25:36;;;;;;;8.18;4.97;;;25.30;99.90;;;;;;5208523;28;20116;-75
2022/07/02 06:28:07;;;;;;;5.63;4.97;;;25.60;99.90;;;;;;5208627;28;20040;-74
2022/07/02 06:30:42;;;;;;;10.05;5.05;;;25.20;99.90;;;;;;5208507;28;20387;-75
2022/07/02 06:33:13;;;;;;;5.28;4.55;;;25.60;99.90;;;;;;5208321;28;20486;-75
2022/07/02 06:35:44;;;;;;;8.85;4.90;;;25.20;99.90;;;;;;5208512;28;20104;-81
2022/07/02 06:38:14;;;;;;;8.75;5.03;;;24.90;99.90;;;;;;5208452;28;20033;-81
2022/07/02 06:40:45;;;;;;;7.90;5.85;;;24.70;99.90;;;;;;5207961;28;20091;-75
2022/07/02 06:43:16;;;;;;;7.22;5.65;;;24.60;99.90;;;;;;5208010;28;20040;-75
2022/07/02 06:45:47;;;;;;;6.95;5.65;;;24.60;99.90;;;;;;5208061;28;20365;-75
2022/07/02 06:48:18;;;;;;;6.97;4.95;;;24.80;99.90;;;;;;5207659;28;20129;-75
2022/07/02 06:50:49;;;;;;;5.47;4.13;;;25.00;99.90;;;;;;5207847;28;20331;-75
2022/07/02 06:53:20;;;;;;;8.55;4.43;;;25.30;99.90;;;;;;5207929;28;20100;-74
2022/07/02 06:55:53;;;;;;;6.72;4.47;;;25.50;99.90;;;;;;5207883;28;20028;-74
2022/07/02 06:58:24;;;;;;;4.97;4.30;;;26.00;99.90;;;;;;5207906;28;20021;-74
2022/07/02 07:00:54;;;;;;;7.78;4.82;;;25.50;99.90;;;;;;5207708;28;20029;-75
2022/07/02 07:03:25;;;;;;;5.25;4.75;;;25.50;99.90;;;;;;5207716;28;20025;-74
2022/07/02 07:05:56;;;;;;;8.05;5.05;;;25.40;99.90;;;;;;5207748;28;20087;-74
2022/07/02 07:08:27;;;;;;;7.20;4.78;;;25.70;99.90;;;;;;5207607;28;20100;-74
2022/07/02 07:10:58;;;;;;;7.75;4.70;;;25.50;99.90;;;;;;5207711;28;20017;-74
2022/07/02 07:13:29;;;;;;;6.50;4.47;;;26.00;99.90;;;;;;5207544;28;20017;-75
2022/07/02 07:18:41;;;;;;;6.13;4.43;;;25.80;99.90;;;;;;4767772;23;20544;-75
2022/07/02 07:21:12;;;;;;;7.00;4.60;;;25.40;99.90;;;;;;5207298;28;20033;-75
2022/07/02 07:23:43;;;;;;;8.20;4.68;;;25.70;99.90;;;;;;5207567;28;20108;-77
2022/07/02 07:26:14;;;;;;;7.38;4.80;;;25.90;99.90;;;;;;5206311;28;20142;-83
2022/07/02 07:28:44;;;;;;;9.80;4.70;;;25.60;99.90;;;;;;5207440;28;20125;-80
2022/07/02 07:31:21;;;;;;;8.00;5.13;;;25.30;99.90;;;;;;5205499;28;20033;-75
2022/07/02 07:33:54;;;;;;;5.70;4.70;;;25.70;99.90;;;;;;5207326;28;20025;-76
2022/07/02 07:36:26;;;;;;;9.00;4.80;;;25.80;99.90;;;;;;5207018;28;20036;-75
2022/07/02 07:38:57;;;;;;;6.50;4.72;;;25.60;99.90;;;;;;5207261;28;20029;-80
2022/07/02 07:41:28;;;;;;;7.80;4.72;;;25.40;99.90;;;;;;5207098;28;20037;-80
2022/07/02 07:44:00;;;;;;;6.05;5.15;;;25.30;99.90;;;;;;5207246;28;20049;-80
2022/07/02 07:46:30;;;;;;;8.30;5.32;;;25.30;99.90;;;;;;5207049;28;20100;-83
2022/07/02 07:49:01;;;;;;;6.25;5.13;;;25.30;99.90;;;;;;5207054;28;20127;-75
2022/07/02 07:51:32;;;;;;;7.93;5.18;;;25.40;99.90;;;;;;5206763;28;20029;-82
2022/07/02 07:54:03;;;;;;;7.25;5.18;;;25.50;99.90;;;;;;5206803;28;20037;-76
2022/07/02 07:56:34;;;;;;;7.70;5.15;;;25.40;99.90;;;;;;5206993;28;20502;-84
2022/07/02 07:59:04;;;;;;;7.57;5.05;;;25.70;99.90;;;;;;5206956;28;20029;-84
2022/07/02 08:01:35;;;;;;;11.20;4.78;;;25.90;99.90;;;;;;5206629;28;20014;-83
2022/07/02 08:04:06;;;;;;;6.13;4.53;;;26.20;99.90;;;;;;5207071;28;20060;-74
2022/07/02 08:06:37;;;;;;;7.18;4.80;;;26.00;99.90;;;;;;5206895;28;20021;-73
2022/07/02 08:09:08;;;;;;;6.65;4.65;;;26.10;99.90;;;;;;5206917;28;20091;-74
2022/07/02 08:11:38;;;;;;;5.75;4.47;;;26.00;99.90;;;;;;5206535;28;20527;-83
2022/07/02 08:14:09;;;;;;;6.15;4.90;;;25.90;99.90;;;;;;5206838;28;20060;-76
2022/07/02 08:16:40;;;;;;;4.70;3.90;;;26.40;99.90;;;;;;5206458;28;20040;-74
2022/07/02 08:19:11;;;;;;;5.60;4.20;;;27.20;99.90;;;;;;5206402;28;20092;-74
2022/07/02 08:21:41;;;;;;;7.43;5.03;;;26.40;99.90;;;;;;5206665;28;20476;-75
2022/07/02 08:24:12;;;;;;;7.10;4.32;;;25.90;99.90;;;;;;5205442;28;20021;-73
2022/07/02 08:26:43;;;;;;;5.72;4.88;;;25.90;99.90;;;;;;5206710;28;20033;-74
2022/07/02 08:29:14;;;;;;;6.60;4.43;;;26.10;99.90;;;;;;5206549;28;20462;-73
2022/07/02 08:31:44;;;;;;;5.93;4.40;;;26.10;99.90;;;;;;5206857;28;20473;-73
2022/07/02 08:34:15;;;;;;;5.18;4.68;;;26.30;99.90;;;;;;5206113;28;20420;-78
2022/07/02 08:36:46;;;;;;;7.88;4.28;;;27.00;99.90;;;;;;5206494;28;20034;-83
2022/07/02 08:39:17;;;;;;;7.80;3.80;;;27.00;99.90;;;;;;5206301;28;20045;-80
2022/07/02 08:41:49;;;;;;;4.65;3.63;;;27.30;99.90;;;;;;5206766;28;20030;-76
2022/07/02 08:44:25;;;;;;;4.35;3.95;;;27.20;99.90;;;;;;5209962;28;20025;-74
2022/07/02 08:46:57;;;;;;;4.70;3.83;;;27.20;99.90;;;;;;5210475;28;20037;-83
2022/07/02 08:49:32;;;;;;;6.07;3.90;;;26.20;99.90;;;;;;5210433;28;20021;-73
2022/07/02 08:52:03;;;;;;;7.25;4.03;;;26.40;99.90;;;;;;5209474;28;20025;-81
2022/07/02 08:54:35;;;;;;;9.50;4.40;;;26.60;99.90;;;;;;5209234;28;20049;-73
2022/07/02 08:57:09;;;;;;;6.07;4.40;;;26.90;99.90;;;;;;5207302;28;20063;-80
2022/07/02 08:59:40;;;;;;;6.43;3.60;;;27.30;99.90;;;;;;5210317;28;20458;-74
2022/07/02 09:02:15;;;;;;;10.32;3.90;;;26.60;99.90;;;;;;5209062;28;20034;-73
2022/07/02 09:04:48;;;;;;;5.60;4.38;;;26.70;99.90;;;;;;5210117;28;20013;-74
2022/07/02 09:07:19;;;;;;;4.32;3.63;;;27.40;99.90;;;;;;5210140;28;20104;-74
2022/07/02 09:09:52;;;;;;;5.43;3.67;;;27.00;99.90;;;;;;5209742;28;20134;-74
2022/07/02 09:12:24;;;;;;;6.80;4.03;;;27.20;99.90;;;;;;5209029;28;20039;-76
2022/07/02 09:14:55;;;;;;;6.13;4.15;;;27.30;99.90;;;;;;5210001;28;20423;-73
2022/07/02 09:17:26;;;;;;;5.13;3.70;;;27.40;99.90;;;;;;5209688;28;20121;-81
2022/07/02 09:19:56;;;;;;;6.50;3.70;;;27.90;99.90;;;;;;5209851;28;20065;-75
2022/07/02 09:22:36;;;;;;;8.70;4.00;;;27.10;99.90;;;;;;5209681;28;20037;-74
2022/07/02 09:25:10;;;;;;;6.85;3.92;;;28.00;99.90;;;;;;5209834;28;20017;-73
2022/07/02 09:27:42;;;;;;;7.45;3.67;;;27.60;99.90;;;;;;5208466;28;20052;-74
2022/07/02 09:30:18;;;;;;;4.75;3.60;;;27.70;99.90;;;;;;5209668;28;20025;-82
2022/07/02 09:32:49;;;;;;;5.60;4.00;;;27.70;99.90;;;;;;5209935;28;20028;-73
2022/07/02 09:35:21;;;;;;;5.53;3.90;;;27.40;99.90;;;;;;5209632;28;20353;-81
2022/07/02 09:37:52;;;;;;;6.55;3.80;;;27.10;99.90;;;;;;5209482;28;20025;-77
2022/07/02 09:40:23;;;;;;;7.15;3.75;;;26.90;99.90;;;;;;5209508;28;20484;-81
2022/07/02 09:42:54;;;;;;;5.07;3.72;;;26.90;99.90;;;;;;5208453;28;20372;-73
2022/07/02 09:45:25;;;;;;;5.75;4.25;;;26.70;99.90;;;;;;5209580;28;20026;-73
2022/07/02 09:48:02;;;;;;;5.43;4.25;;;27.10;99.90;;;;;;5207885;28;20029;-74
2022/07/02 09:50:39;;;;;;;5.70;4.22;;;26.60;99.90;;;;;;5209365;28;20025;-77
2022/07/02 09:53:12;;;;;;;6.28;3.70;;;26.20;99.90;;;;;;5209496;28;20353;-82
2022/07/02 09:55:48;;;;;;;10.30;4.00;;;27.00;99.90;;;;;;5208651;28;20053;-74
2022/07/02 09:58:27;;;;;;;7.47;4.10;;;26.90;99.90;;;;;;5209153;28;20048;-81
2022/07/02 10:01:02;;;;;;;4.75;3.67;;;27.40;99.90;;;;;;5209274;28;20022;-80
2022/07/02 10:03:48;;;;;;;4.25;3.42;;;27.30;99.90;;;;;;5207666;28;20353;-82
2022/07/02 10:06:19;;;;;;;7.70;3.60;;;27.40;99.90;;;;;;5208877;28;20053;-83
2022/07/02 10:08:52;;;;;;;4.55;3.58;;;27.60;99.90;;;;;;5208928;28;20365;-81
2022/07/02 10:11:23;;;;;;;4.68;4.10;;;27.20;99.90;;;;;;5207415;28;20032;-74
2022/07/02 10:13:56;;;;;;;5.22;4.20;;;27.70;99.90;;;;;;5208880;28;20052;-82
2022/07/02 10:16:28;;;;;;;6.18;3.28;;;28.20;99.90;;;;;;5208537;28;20064;-80
2022/07/02 10:19:00;;;;;;;8.18;3.53;;;27.60;99.90;;;;;;5207163;28;20041;-80
2022/07/02 10:21:31;;;;;;;4.13;3.72;;;27.50;99.90;;;;;;5207550;28;20029;-81
2022/07/02 10:24:02;;;;;;;8.40;3.90;;;27.90;99.90;;;;;;5208551;28;20032;-82
2022/07/02 10:26:33;;;;;;;5.57;3.58;;;28.50;99.90;;;;;;5208044;28;20104;-81
2022/07/02 10:29:04;;;;;;;5.30;3.58;;;27.40;99.90;;;;;;5207760;28;20026;-76
2022/07/02 10:31:43;;;;;;;6.05;3.33;;;27.50;99.90;;;;;;5208557;28;20036;-82
2022/07/02 10:34:17;;;;;;;5.93;3.75;;;27.70;99.90;;;;;;5208550;28;20092;-81
2022/07/02 10:36:48;;;;;;;4.05;3.60;;;27.40;99.90;;;;;;5208538;28;20034;-81
2022/07/02 10:39:19;;;;;;;5.22;3.63;;;27.10;99.90;;;;;;5208266;28;20037;-80
2022/07/02 10:41:50;;;;;;;6.70;3.33;;;27.70;99.90;;;;;;5208511;28;20025;-82
2022/07/02 10:44:20;;;;;;;6.32;3.58;;;27.60;99.90;;;;;;5207033;28;20040;-81
2022/07/02 10:46:51;;;;;;;8.90;4.10;;;27.70;99.90;;;;;;5208047;28;20033;-81
2022/07/02 10:49:27;;;;;;;4.97;3.60;;;27.40;99.90;;;;;;5208377;28;20025;-79
2022/07/02 10:51:57;;;;;;;6.75;3.55;;;27.60;99.90;;;;;;5208196;28;20049;-80
2022/07/02 10:54:32;;;;;;;6.93;3.60;;;27.50;99.90;;;;;;5206793;28;20065;-82
2022/07/02 10:57:03;;;;;;;5.72;4.13;;;27.10;99.90;;;;;;5208057;28;20030;-80
2022/07/02 10:59:37;;;;;;;5.18;3.50;;;28.00;99.90;;;;;;5207462;28;20025;-81
2022/07/02 11:02:12;;;;;;;7.45;3.75;;;27.70;99.90;;;;;;5207980;28;20105;-81
2022/07/02 11:04:43;;;;;;;5.22;3.60;;;27.70;99.90;;;;;;5207933;28;20445;-78
2022/07/02 11:07:14;;;;;;;4.38;3.40;;;28.30;99.90;;;;;;5207065;28;20036;-81
2022/07/02 11:09:50;;;;;;;6.57;4.07;;;28.10;99.90;;;;;;5207847;28;20014;-82
2022/07/02 11:12:41;;;;;;;5.88;3.65;;;27.90;99.90;;;;;;5207832;28;20377;-82
2022/07/02 11:15:32;;;;;;;5.20;3.53;;;28.40;99.90;;;;;;5207615;28;20067;-73
2022/07/02 11:18:07;;;;;;;6.78;3.80;;;27.70;99.90;;;;;;5206980;28;20124;-81
2022/07/02 11:20:38;;;;;;;7.75;3.75;;;28.70;99.90;;;;;;5206452;28;20045;-81
2022/07/02 11:23:09;;;;;;;3.55;3.22;;;28.50;99.90;;;;;;5206188;28;20033;-73
2022/07/02 11:25:40;;;;;;;5.70;3.97;;;27.90;99.90;;;;;;5207447;28;20475;-81
2022/07/02 11:28:13;;;;;;;6.18;3.60;;;27.90;99.90;;;;;;5207246;28;20108;-80
2022/07/02 11:30:44;;;;;;;6.97;3.83;;;28.50;99.90;;;;;;5207326;28;20063;-76
2022/07/02 11:33:15;;;;;;;5.28;3.80;;;27.70;99.90;;;;;;5206007;28;20056;-77
2022/07/02 11:35:51;;;;;;;8.60;3.90;;;28.30;99.90;;;;;;5207326;28;20036;-80
2022/07/02 11:38:22;;;;;;;5.38;3.90;;;27.40;99.90;;;;;;5207329;28;20045;-81
2022/07/02 11:40:53;;;;;;;4.50;4.03;;;28.00;99.90;;;;;;5207335;28;20523;-77
2022/07/02 11:43:24;;;;;;;6.68;4.03;;;28.50;99.90;;;;;;5207233;28;20377;-81
2022/07/02 11:45:54;;;;;;;5.85;3.40;;;28.00;99.90;;;;;;5207091;28;20033;-81
2022/07/02 11:48:26;;;;;;;9.57;5.55;;;28.10;99.90;;;;;;5206883;28;20021;-81
2022/07/02 11:50:59;;;;;;;6.80;4.22;;;27.50;99.90;;;;;;5207135;28;20033;-82
2022/07/02 11:53:30;;;;;;;9.30;5.40;;;28.50;99.90;;;;;;5205694;28;20075;-81
2022/07/02 11:56:05;;;;;;;4.35;3.92;;;28.00;99.90;;;;;;5206937;28;20108;-80
2022/07/02 11:58:48;;;;;;;4.82;3.40;;;29.30;99.90;;;;;;5206824;28;20026;-79
2022/07/02 12:01:20;;;;;;;6.63;3.15;;;28.30;99.90;;;;;;5206915;28;20031;-82
2022/07/02 12:04:00;;;;;;;4.93;3.50;;;28.20;99.90;;;;;;5205473;28;20029;-80
2022/07/02 12:06:34;;;;;;;6.70;3.25;;;28.60;99.90;;;;;;5206774;28;20061;-81
2022/07/02 12:09:07;;;;;;;6.63;3.33;;;28.20;99.90;;;;;;5206842;28;20052;-81
2022/07/02 12:11:40;;;;;;;5.72;3.35;;;28.90;99.90;;;;;;5206851;28;20021;-81
2022/07/02 12:14:12;;;;;;;5.00;3.40;;;29.30;99.90;;;;;;5206873;28;20452;-81
2022/07/02 12:16:46;;;;;;;9.23;3.45;;;28.70;99.90;;;;;;5206426;28;20463;-81
2022/07/02 12:19:17;;;;;;;5.28;3.35;;;29.00;99.90;;;;;;5204856;28;20046;-81
2022/07/02 12:21:50;;;;;;;5.35;3.30;;;28.80;99.90;;;;;;5206721;28;20426;-81
2022/07/02 12:24:31;;;;;;;5.57;3.17;;;28.40;99.90;;;;;;5205407;28;20473;-81
2022/07/02 12:27:08;;;;;;;7.03;3.65;;;28.70;99.90;;;;;;5206497;28;20104;-80
2022/07/02 12:30:04;;;;;;;5.78;3.67;;;28.50;99.90;;;;;;5206558;28;20075;-80
2022/07/02 12:32:38;;;;;;;6.40;3.22;;;29.00;99.90;;;;;;5206033;28;20085;-81
2022/07/02 12:35:12;;;;;;;5.97;3.50;;;29.40;99.90;;;;;;5204935;28;20022;-81
2022/07/02 12:37:43;;;;;;;6.93;3.22;;;29.60;99.90;;;;;;5206141;28;20137;-78
2022/07/02 12:40:17;;;;;;;6.45;3.40;;;28.80;99.90;;;;;;5206351;28;20484;-81
2022/07/02 12:42:52;;;;;;;4.30;3.22;;;28.80;99.90;;;;;;5205168;28;20034;-81
2022/07/02 12:45:29;;;;;;;5.10;3.88;;;29.40;99.90;;;;;;5204836;28;20026;-78
2022/07/02 12:48:11;;;;;;;4.75;3.08;;;28.80;99.90;;;;;;5223898;28;20029;-83
2022/07/02 12:50:44;;;;;;;9.52;4.20;;;28.90;99.90;;;;;;5227093;28;20099;-79
2022/07/02 12:53:20;;;;;;;5.85;3.60;;;28.40;99.90;;;;;;5227070;28;20337;-77
2022/07/02 12:55:59;;;;;;;6.95;3.72;;;28.90;99.90;;;;;;5227246;28;20036;-71
2022/07/02 12:58:31;;;;;;;6.05;3.60;;;28.30;99.90;;;;;;5226785;28;20025;-79
2022/07/02 13:01:02;;;;;;;7.63;3.42;;;28.50;99.90;;;;;;5226818;28;20086;-80
2022/07/02 13:03:33;;;;;;;4.28;3.10;;;28.20;99.90;;;;;;5225597;28;20025;-80
2022/07/02 13:06:04;;;;;;;5.50;3.28;;;28.50;99.90;;;;;;5225590;28;20036;-78
2022/07/02 13:08:35;;;;;;;7.78;3.53;;;28.40;99.90;;;;;;5226693;28;20051;-79